Time;durP1;ratioP1;P1;durP2;ratioP2;P2;SDS_P1;SDS_P2;PMS_P1;PMS_P2;Temp;Humidity;BMP_temperature;BMP_pressure;BME280_temperature;BME280_humidity;BME280_pressure;Samples;Min_cycle;Max_cycle;Signal;HPM_P1;HPM_P2
2023/04/04 00:00:24;;;;;;;;;;;;;;;9.68;100.00;98443.97;5011497;28;19917;-83
2023/04/04 00:02:50;;;;;;;;;;;;;;;9.68;100.00;98443.97;5012552;28;19936;-85
2023/04/04 00:05:15;;;;;;;;;;;;;;;9.68;100.00;98434.31;5011769;28;19918;-86
2023/04/04 00:07:41;;;;;;;;;;;;;;;9.65;100.00;98425.63;5011927;28;19923;-83
2023/04/04 00:10:06;;;;;;;;;;;;;;;9.58;100.00;98403.06;5012260;28;20346;-84
2023/04/04 00:12:32;;;;;;;;;;;;;;;9.56;100.00;98407.50;5011811;28;19924;-82
2023/04/04 00:14:57;;;;;;;;;;;;;;;9.57;100.00;98403.97;5011658;28;19975;-85
2023/04/04 00:17:22;;;;;;;;;;;;;;;9.69;100.00;98398.31;5011767;28;19947;-85
2023/04/04 00:19:48;;;;;;;;;;;;;;;9.73;100.00;98405.19;5011994;28;19917;-83
2023/04/04 00:22:13;;;;;;;;;;;;;;;9.88;100.00;98414.34;5011511;28;20024;-83
2023/04/04 00:24:39;;;;;;;;;;;;;;;9.94;100.00;98414.16;5011714;28;19913;-83
2023/04/04 00:27:04;;;;;;;;;;;;;;;9.92;100.00;98402.81;5011059;28;19917;-83
2023/04/04 00:29:30;;;;;;;;;;;;;;;9.89;100.00;98397.66;5011466;28;19918;-83
2023/04/04 00:31:56;;;;;;;;;;;;;;;9.85;100.00;98391.63;4994188;28;20315;-83
2023/04/04 00:34:21;;;;;;;;;;;;;;;9.85;100.00;98391.63;5011500;28;19914;-82
2023/04/04 00:36:47;;;;;;;;;;;;;;;9.71;100.00;98401.75;5011185;28;19917;-84
2023/04/04 00:39:12;;;;;;;;;;;;;;;9.64;100.00;98400.22;5012094;28;19917;-83
2023/04/04 00:41:38;;;;;;;;;;;;;;;9.70;100.00;98393.88;5011487;28;19917;-83
2023/04/04 00:44:04;;;;;;;;;;;;;;;9.76;100.00;98386.66;5010673;28;19965;-83
2023/04/04 00:46:29;;;;;;;;;;;;;;;9.78;100.00;98381.34;5010734;28;20001;-84
2023/04/04 00:48:55;;;;;;;;;;;;;;;9.70;100.00;98378.97;5011079;28;19913;-83
2023/04/04 00:51:21;;;;;;;;;;;;;;;9.72;100.00;98373.66;5011020;28;19948;-83
2023/04/04 00:53:46;;;;;;;;;;;;;;;9.69;100.00;98377.25;5013437;28;19917;-85
2023/04/04 00:56:12;;;;;;;;;;;;;;;9.69;100.00;98369.34;5011616;28;19970;-82
2023/04/04 00:58:38;;;;;;;;;;;;;;;9.72;100.00;98384.19;5026780;28;19913;-83
2023/04/04 01:01:04;;;;;;;;;;;;;;;9.85;100.00;98390.75;5019868;28;20004;-81
2023/04/04 01:03:29;;;;;;;;;;;;;;;9.90;100.00;98387.97;5010914;28;20403;-84
2023/04/04 01:05:55;;;;;;;;;;;;;;;9.94;100.00;98381.69;5010789;28;19921;-82
2023/04/04 01:08:21;;;;;;;;;;;;;;;10.04;100.00;98388.38;5011319;28;20324;-82
2023/04/04 01:10:47;;;;;;;;;;;;;;;10.11;100.00;98397.78;5010077;28;19923;-83
2023/04/04 01:13:13;;;;;;;;;;;;;;;10.31;100.00;98391.84;5015847;28;19920;-83
2023/04/04 01:15:39;;;;;;;;;;;;;;;10.37;100.00;98386.38;5030259;28;19913;-82
2023/04/04 01:18:06;;;;;;;;;;;;;;;10.36;100.00;98389.06;5019112;28;19952;-82
2023/04/04 01:20:32;;;;;;;;;;;;;;;10.24;100.00;98377.16;5010949;28;19917;-84
2023/04/04 01:23:00;;;;;;;;;;;;;;;10.18;100.00;98378.22;5010885;28;20386;-84
2023/04/04 01:25:29;;;;;;;;;;;;;;;10.23;100.00;98380.72;5010600;28;19952;-83
2023/04/04 01:27:55;;;;;;;;;;;;;;;10.29;100.00;98383.13;5010768;28;19913;-83
2023/04/04 01:30:21;;;;;;;;;;;;;;;10.20;100.00;98373.75;5025889;28;20339;-82
2023/04/04 01:32:50;;;;;;;;;;;;;;;10.22;100.00;98371.06;5010294;28;20008;-82
2023/04/04 01:35:27;;;;;;;;;;;;;;;10.10;100.00;98353.06;5012232;28;19976;-83
2023/04/04 01:38:01;;;;;;;;;;;;;;;10.03;100.00;98349.78;5016053;28;19921;-86
2023/04/04 01:40:33;;;;;;;;;;;;;;;10.00;100.00;98361.25;5012245;28;20448;-81
2023/04/04 01:42:59;;;;;;;;;;;;;;;10.03;100.00;98365.59;5014534;28;19917;-82
2023/04/04 01:45:25;;;;;;;;;;;;;;;9.96;100.00;98364.06;5014947;28;19917;-80
2023/04/04 01:47:50;;;;;;;;;;;;;;;9.88;100.00;98347.66;5014543;28;19910;-80
2023/04/04 01:50:16;;;;;;;;;;;;;;;9.99;100.00;98350.78;5014556;28;19920;-80
2023/04/04 01:52:41;;;;;;;;;;;;;;;9.98;100.00;98343.81;5014852;28;19959;-81
2023/04/04 01:55:07;;;;;;;;;;;;;;;10.06;100.00;98339.13;5014660;28;19909;-80
2023/04/04 01:57:32;;;;;;;;;;;;;;;10.03;100.00;98328.69;5014282;28;20310;-81
2023/04/04 01:59:58;;;;;;;;;;;;;;;10.06;100.00;98331.22;5014704;28;19918;-80
2023/04/04 02:02:23;;;;;;;;;;;;;;;10.14;100.00;98317.78;5014256;28;19968;-81
2023/04/04 02:04:49;;;;;;;;;;;;;;;10.11;100.00;98329.28;5013773;28;19921;-83
2023/04/04 02:07:14;;;;;;;;;;;;;;;10.16;100.00;98327.38;5014384;28;20003;-81
2023/04/04 02:09:40;;;;;;;;;;;;;;;10.24;100.00;98337.63;5014331;28;19920;-81
2023/04/04 02:12:07;;;;;;;;;;;;;;;10.30;100.00;98339.19;5014539;28;19914;-81
2023/04/04 02:14:32;;;;;;;;;;;;;;;10.38;100.00;98339.81;5013759;28;19914;-83
2023/04/04 02:16:58;;;;;;;;;;;;;;;10.27;100.00;98345.44;5013581;28;19938;-83
2023/04/04 02:19:24;;;;;;;;;;;;;;;10.29;100.00;98340.97;5014145;28;19914;-81
2023/04/04 02:21:50;;;;;;;;;;;;;;;10.49;100.00;98344.72;5014405;28;19913;-81
2023/04/04 02:24:15;;;;;;;;;;;;;;;10.44;100.00;98339.59;5013887;28;20371;-81
2023/04/04 02:26:40;;;;;;;;;;;;;;;10.29;100.00;98340.13;5013110;28;19921;-82
2023/04/04 02:29:06;;;;;;;;;;;;;;;10.29;100.00;98334.84;5013940;28;19917;-82
2023/04/04 02:31:31;;;;;;;;;;;;;;;10.37;100.00;98340.72;5013611;28;20395;-82
2023/04/04 02:33:56;;;;;;;;;;;;;;;10.30;100.00;98337.44;5013656;28;19944;-82
2023/04/04 02:36:22;;;;;;;;;;;;;;;10.31;100.00;98340.91;5014009;28;20029;-81
2023/04/04 02:38:47;;;;;;;;;;;;;;;10.24;100.00;98326.22;4996053;28;20300;-82
2023/04/04 02:41:12;;;;;;;;;;;;;;;10.32;100.00;98329.47;5013720;28;19921;-80
2023/04/04 02:43:37;;;;;;;;;;;;;;;10.18;100.00;98335.22;5013787;28;19913;-82
2023/04/04 02:46:03;;;;;;;;;;;;;;;10.11;100.00;98323.16;5013087;28;19917;-81
2023/04/04 02:48:29;;;;;;;;;;;;;;;10.19;100.00;98334.28;5011934;28;20391;-81
2023/04/04 02:50:54;;;;;;;;;;;;;;;10.24;100.00;98329.72;5013725;28;19920;-80
2023/04/04 02:53:19;;;;;;;;;;;;;;;10.11;100.00;98328.44;5012810;28;20020;-81
2023/04/04 02:55:45;;;;;;;;;;;;;;;10.24;100.00;98340.28;5012863;28;19968;-80
2023/04/04 02:58:10;;;;;;;;;;;;;;;10.38;100.00;98350.38;5013768;28;20391;-80
2023/04/04 03:00:36;;;;;;;;;;;;;;;10.36;100.00;98344.25;5013201;28;19917;-80
2023/04/04 03:03:01;;;;;;;;;;;;;;;10.44;100.00;98341.34;5013378;28;19917;-80
2023/04/04 03:05:27;;;;;;;;;;;;;;;10.26;100.00;98343.72;5013600;28;19914;-80
2023/04/04 03:07:54;;;;;;;;;;;;;;;10.16;100.00;98340.53;5015253;28;19925;-80
2023/04/04 03:10:20;;;;;;;;;;;;;;;10.09;100.00;98346.09;5036326;28;20346;-80
2023/04/04 03:12:45;;;;;;;;;;;;;;;10.06;100.00;98343.56;5013869;28;19918;-79
2023/04/04 03:15:11;;;;;;;;;;;;;;;10.02;100.00;98343.66;4995130;28;19971;-81
2023/04/04 03:17:36;;;;;;;;;;;;;;;10.06;100.00;98347.03;5028079;28;19956;-80
2023/04/04 03:20:01;;;;;;;;;;;;;;;10.10;100.00;98350.41;5028184;28;19966;-80
2023/04/04 03:22:26;;;;;;;;;;;;;;;10.08;100.00;98347.84;5013894;28;19918;-79
2023/04/04 03:24:52;;;;;;;;;;;;;;;9.98;100.00;98346.44;5023549;28;19946;-80
2023/04/04 03:27:17;;;;;;;;;;;;;;;10.06;100.00;98351.44;5025591;28;20727;-79
2023/04/04 03:29:42;;;;;;;;;;;;;;;9.98;100.00;98355.19;5004951;28;19921;-79
2023/04/04 03:32:08;;;;;;;;;;;;;;;10.09;100.00;98373.28;5008165;28;19921;-78
2023/04/04 03:34:33;;;;;;;;;;;;;;;10.11;100.00;98371.44;5030016;28;19916;-79
2023/04/04 03:36:58;;;;;;;;;;;;;;;10.31;100.00;98381.28;5032296;28;19913;-77
2023/04/04 03:39:28;;;;;;;;;;;;;;;10.18;100.00;98377.38;5032476;28;19913;-79
2023/04/04 03:41:54;;;;;;;;;;;;;;;10.14;100.00;98371.34;5030466;28;19924;-80
2023/04/04 03:44:20;;;;;;;;;;;;;;;10.18;100.00;98361.56;4992944;28;19922;-79
2023/04/04 03:46:45;;;;;;;;;;;;;;;10.04;100.00;98369.94;4993106;28;19917;-80
2023/04/04 03:49:10;;;;;;;;;;;;;;;10.00;100.00;98374.44;5012399;28;19936;-80
2023/04/04 03:51:36;;;;;;;;;;;;;;;10.09;100.00;98370.66;5021404;28;20354;-79
2023/04/04 03:54:01;;;;;;;;;;;;;;;10.12;100.00;98362.63;5012486;28;20398;-81
2023/04/04 03:56:27;;;;;;;;;;;;;;;10.19;100.00;98376.44;4994494;28;19913;-80
2023/04/04 03:58:54;;;;;;;;;;;;;;;10.24;100.00;98381.56;5012070;28;19963;-82
2023/04/04 04:01:19;;;;;;;;;;;;;;;10.33;100.00;98378.63;5011408;28;19975;-81
2023/04/04 04:03:45;;;;;;;;;;;;;;;10.32;100.00;98380.41;5011892;28;20383;-81
2023/04/04 04:06:11;;;;;;;;;;;;;;;10.32;100.00;98387.44;5012067;28;20418;-80
2023/04/04 04:08:36;;;;;;;;;;;;;;;10.41;100.00;98379.25;5011703;28;19913;-80
2023/04/04 04:11:02;;;;;;;;;;;;;;;10.32;100.00;98379.53;4994614;28;19920;-83
2023/04/04 04:13:28;;;;;;;;;;;;;;;10.52;100.00;98390.25;5011748;28;20040;-81
2023/04/04 04:15:53;;;;;;;;;;;;;;;10.65;100.00;98395.09;5009493;28;20690;-83
2023/04/04 04:18:19;;;;;;;;;;;;;;;10.64;100.00;98402.13;5011041;28;19925;-82
2023/04/04 04:20:44;;;;;;;;;;;;;;;10.59;100.00;98397.97;5011421;28;19940;-81
2023/04/04 04:23:09;;;;;;;;;;;;;;;10.61;100.00;98404.03;5009501;28;19918;-82
2023/04/04 04:25:34;;;;;;;;;;;;;;;10.59;100.00;98393.53;5019913;28;20368;-85
2023/04/04 04:28:00;;;;;;;;;;;;;;;10.58;100.00;98394.44;5011201;28;20000;-85
2023/04/04 04:30:25;;;;;;;;;;;;;;;10.61;100.00;98394.34;5009749;28;20100;-85
2023/04/04 04:32:51;;;;;;;;;;;;;;;10.62;100.00;98403.13;5011517;28;19913;-86
2023/04/04 04:35:16;;;;;;;;;;;;;;;10.69;100.00;98399.31;5011051;28;19960;-82
2023/04/04 04:37:41;;;;;;;;;;;;;;;10.62;100.00;98392.56;5011200;28;20099;-84
2023/04/04 04:40:07;;;;;;;;;;;;;;;10.43;100.00;98401.13;5010724;28;19956;-84
2023/04/04 04:42:32;;;;;;;;;;;;;;;10.48;100.00;98395.72;4993811;28;19940;-85
2023/04/04 04:44:58;;;;;;;;;;;;;;;10.42;100.00;98393.28;5010931;28;19963;-84
2023/04/04 04:47:24;;;;;;;;;;;;;;;10.45;100.00;98407.22;5010479;28;19965;-84
2023/04/04 04:49:50;;;;;;;;;;;;;;;10.57;100.00;98408.56;5010959;28;19964;-83
2023/04/04 04:52:15;;;;;;;;;;;;;;;10.50;100.00;98415.84;5011328;28;19944;-85
2023/04/04 04:54:42;;;;;;;;;;;;;;;10.60;100.00;98407.56;5011786;28;20380;-84
2023/04/04 04:57:07;;;;;;;;;;;;;;;10.71;100.00;98408.06;5011258;28;19979;-84
2023/04/04 04:59:33;;;;;;;;;;;;;;;10.63;100.00;98410.09;5011196;28;20356;-84
2023/04/04 05:01:58;;;;;;;;;;;;;;;10.65;100.00;98401.22;5010510;28;20315;-84
2023/04/04 05:04:26;;;;;;;;;;;;;;;10.68;100.00;98402.91;5009961;28;19943;-83
2023/04/04 05:06:52;;;;;;;;;;;;;;;10.63;100.00;98404.81;5010729;28;20414;-85
2023/04/04 05:09:18;;;;;;;;;;;;;;;10.58;100.00;98405.00;5011106;28;19913;-84
2023/04/04 05:11:43;;;;;;;;;;;;;;;10.60;100.00;98404.94;5010147;28;19932;-84
2023/04/04 05:14:09;;;;;;;;;;;;;;;10.58;100.00;98399.72;5009906;28;19968;-83
2023/04/04 05:16:34;;;;;;;;;;;;;;;10.54;100.00;98406.88;5010545;28;19927;-81
2023/04/04 05:18:59;;;;;;;;;;;;;;;10.45;100.00;98403.72;5011118;28;19920;-80
2023/04/04 05:21:25;;;;;;;;;;;;;;;10.48;100.00;98396.56;5010178;28;19921;-83
2023/04/04 05:23:51;;;;;;;;;;;;;;;10.47;100.00;98401.88;5009879;28;19929;-83
2023/04/04 05:26:16;;;;;;;;;;;;;;;10.44;100.00;98394.09;5010781;28;19918;-82
2023/04/04 05:28:41;;;;;;;;;;;;;;;10.50;100.00;98391.22;5010448;28;20386;-81
2023/04/04 05:31:07;;;;;;;;;;;;;;;10.56;100.00;98388.38;5010873;28;19996;-81
2023/04/04 05:33:32;;;;;;;;;;;;;;;10.60;100.00;98392.63;5014052;28;19913;-82
2023/04/04 05:36:01;;;;;;;;;;;;;;;10.51;100.00;98391.16;5025349;28;19928;-82
2023/04/04 05:38:26;;;;;;;;;;;;;;;10.42;100.00;98385.38;5030126;28;20335;-82
2023/04/04 05:40:52;;;;;;;;;;;;;;;10.67;100.00;98391.47;5030510;28;19928;-82
2023/04/04 05:43:18;;;;;;;;;;;;;;;10.66;100.00;98381.84;5030388;28;20354;-82
2023/04/04 05:45:43;;;;;;;;;;;;;;;10.55;100.00;98392.78;5030023;28;20337;-82
2023/04/04 05:48:08;;;;;;;;;;;;;;;10.54;100.00;98390.22;5030559;28;19913;-83
2023/04/04 05:50:34;;;;;;;;;;;;;;;10.54;100.00;98400.75;5017419;28;20264;-82
2023/04/04 05:52:59;;;;;;;;;;;;;;;10.57;100.00;98398.88;5010007;28;20236;-82
2023/04/04 05:55:25;;;;;;;;;;;;;;;10.71;100.00;98405.44;5010587;28;20296;-82
2023/04/04 05:57:50;;;;;;;;;;;;;;;10.79;100.00;98407.78;5010014;28;19914;-83
2023/04/04 06:00:16;;;;;;;;;;;;;;;10.71;100.00;98408.91;4991764;28;19984;-83
2023/04/04 06:02:42;;;;;;;;;;;;;;;10.60;100.00;98420.75;5010128;28;20386;-83
2023/04/04 06:05:07;;;;;;;;;;;;;;;10.66;100.00;98424.06;5009575;28;20000;-82
2023/04/04 06:07:33;;;;;;;;;;;;;;;10.80;100.00;98431.47;5010477;28;19944;-80
2023/04/04 06:09:58;;;;;;;;;;;;;;;10.75;100.00;98425.47;5008450;28;19944;-83
2023/04/04 06:12:23;;;;;;;;;;;;;;;10.75;100.00;98428.13;5006256;28;20414;-81
2023/04/04 06:14:48;;;;;;;;;;;;;;;10.80;100.00;98418.28;5008367;28;19917;-81
2023/04/04 06:17:14;;;;;;;;;;;;;;;10.83;100.00;98417.28;5008862;28;19940;-82
2023/04/04 06:19:39;;;;;;;;;;;;;;;10.84;100.00;98419.88;5009447;28;19963;-82
2023/04/04 06:22:05;;;;;;;;;;;;;;;10.94;100.00;98420.41;5009609;28;20394;-82
2023/04/04 06:24:30;;;;;;;;;;;;;;;10.87;100.00;98414.50;5009472;28;20004;-83
2023/04/04 06:26:55;;;;;;;;;;;;;;;11.01;100.00;98429.81;5012141;28;20421;-83
2023/04/04 06:29:21;;;;;;;;;;;;;;;11.12;100.00;98424.13;5013425;28;20403;-82
2023/04/04 06:31:48;;;;;;;;;;;;;;;11.19;100.00;98428.28;5013196;28;19966;-83
2023/04/04 06:34:13;;;;;;;;;;;;;;;11.03;100.00;98427.13;5012886;28;19918;-81
2023/04/04 06:36:39;;;;;;;;;;;;;;;11.23;100.00;98426.38;5013027;28;19920;-82
2023/04/04 06:39:04;;;;;;;;;;;;;;;11.30;100.00;98422.59;5013191;28;20489;-81
2023/04/04 06:41:29;;;;;;;;;;;;;;;11.16;100.00;98430.19;5012829;28;20407;-83
2023/04/04 06:43:55;;;;;;;;;;;;;;;11.21;100.00;98425.56;5013105;28;20012;-81
2023/04/04 06:46:20;;;;;;;;;;;;;;;11.35;100.00;98425.06;5012990;28;19920;-82
2023/04/04 06:48:45;;;;;;;;;;;;;;;11.26;100.00;98424.50;5012454;28;20391;-82
2023/04/04 06:51:11;;;;;;;;;;;;;;;11.25;100.00;98425.41;5012991;28;19920;-82
2023/04/04 06:53:37;;;;;;;;;;;;;;;11.25;100.00;98414.84;5012662;28;20372;-83
2023/04/04 06:56:03;;;;;;;;;;;;;;;11.16;100.00;98419.63;5012919;28;20215;-82
2023/04/04 06:58:28;;;;;;;;;;;;;;;11.35;100.00;98425.91;5012952;28;19914;-82
2023/04/04 07:00:55;;;;;;;;;;;;;;;11.21;100.00;98413.22;5012302;28;20003;-81
2023/04/04 07:03:22;;;;;;;;;;;;;;;11.22;100.00;98409.69;5012977;28;19971;-82
2023/04/04 07:05:47;;;;;;;;;;;;;;;11.31;100.00;98416.41;5012339;28;19996;-81
2023/04/04 07:08:13;;;;;;;;;;;;;;;11.25;100.00;98412.22;5012760;28;20381;-82
2023/04/04 07:10:38;;;;;;;;;;;;;;;11.25;100.00;98412.22;5012012;28;20413;-82
2023/04/04 07:13:03;;;;;;;;;;;;;;;11.39;100.00;98410.81;5012870;28;19940;-82
2023/04/04 07:15:29;;;;;;;;;;;;;;;11.50;100.00;98421.81;5012156;28;19913;-83
2023/04/04 07:17:54;;;;;;;;;;;;;;;11.41;100.00;98430.94;5012865;28;19952;-81
2023/04/04 07:20:20;;;;;;;;;;;;;;;11.45;100.00;98429.06;5013228;28;19914;-82
2023/04/04 07:22:45;;;;;;;;;;;;;;;11.47;100.00;98438.63;5013391;28;20284;-82
2023/04/04 07:25:13;;;;;;;;;;;;;;;11.46;100.00;98436.06;5013118;28;20022;-82
2023/04/04 07:27:39;;;;;;;;;;;;;;;11.40;100.00;98431.88;5012713;28;19939;-82
2023/04/04 07:30:06;;;;;;;;;;;;;;;11.58;100.00;98435.56;5012902;28;20059;-82
2023/04/04 07:32:31;;;;;;;;;;;;;;;11.68;100.00;98433.47;5013070;28;19937;-82
2023/04/04 07:34:56;;;;;;;;;;;;;;;11.51;100.00;98439.41;5012948;28;20375;-83
2023/04/04 07:37:22;;;;;;;;;;;;;;;11.55;100.00;98443.63;5011083;28;19917;-82
2023/04/04 07:39:48;;;;;;;;;;;;;;;11.58;100.00;98437.38;5012653;28;19971;-81
2023/04/04 07:42:14;;;;;;;;;;;;;;;11.51;100.00;98452.59;5012833;28;19936;-83
2023/04/04 07:44:40;;;;;;;;;;;;;;;11.66;100.00;98435.28;5012358;28;20350;-83
2023/04/04 07:47:05;;;;;;;;;;;;;;;12.03;100.00;98440.91;5011245;28;19917;-80
2023/04/04 07:49:30;;;;;;;;;;;;;;;11.95;100.00;98435.94;5012232;28;19973;-81
2023/04/04 07:51:56;;;;;;;;;;;;;;;11.89;100.00;98447.56;5012830;28;19917;-80
2023/04/04 07:54:22;;;;;;;;;;;;;;;11.80;100.00;98447.94;5012456;28;19914;-81
2023/04/04 07:56:48;;;;;;;;;;;;;;;11.77;100.00;98426.91;5012562;28;19932;-81
2023/04/04 07:59:13;;;;;;;;;;;;;;;12.00;100.00;98447.16;5012479;28;19913;-81
2023/04/04 08:01:38;;;;;;;;;;;;;;;12.25;100.00;98447.03;5012185;28;19924;-81
2023/04/04 08:04:04;;;;;;;;;;;;;;;12.38;100.00;98441.25;5011858;28;19944;-81
2023/04/04 08:06:29;;;;;;;;;;;;;;;12.45;100.00;98448.84;5012494;28;19921;-81
2023/04/04 08:08:55;;;;;;;;;;;;;;;12.28;100.00;98452.19;5011996;28;19914;-82
2023/04/04 08:11:20;;;;;;;;;;;;;;;12.20;100.00;98445.50;5011898;28;20352;-81
2023/04/04 08:13:45;;;;;;;;;;;;;;;12.20;100.00;98451.63;5012336;28;20410;-81
2023/04/04 08:16:11;;;;;;;;;;;;;;;12.41;100.00;98459.63;5011996;28;20446;-81
2023/04/04 08:18:36;;;;;;;;;;;;;;;12.52;100.00;98442.34;5011963;28;19913;-81
2023/04/04 08:21:02;;;;;;;;;;;;;;;12.55;100.00;98449.31;5011855;28;19917;-81
2023/04/04 08:23:28;;;;;;;;;;;;;;;12.58;100.00;98450.97;4994370;28;19936;-81
2023/04/04 08:25:54;;;;;;;;;;;;;;;12.34;100.00;98449.31;5011547;28;20394;-82
2023/04/04 08:28:19;;;;;;;;;;;;;;;12.64;100.00;98448.06;5012092;28;19913;-81
2023/04/04 08:30:45;;;;;;;;;;;;;;;12.69;100.00;98449.56;5011345;28;19909;-82
2023/04/04 08:33:10;;;;;;;;;;;;;;;12.79;100.00;98459.75;4994657;28;19913;-81
2023/04/04 08:35:35;;;;;;;;;;;;;;;12.93;100.00;98444.13;5012135;28;19909;-81
2023/04/04 08:38:04;;;;;;;;;;;;;;;13.06;100.00;98444.44;5011707;28;19920;-81
2023/04/04 08:40:31;;;;;;;;;;;;;;;13.15;99.95;98444.03;5011873;28;19914;-81
2023/04/04 08:42:58;;;;;;;;;;;;;;;13.20;100.00;98452.59;5011809;28;19910;-80
2023/04/04 08:45:24;;;;;;;;;;;;;;;13.81;97.37;98447.19;5011305;28;19917;-81
2023/04/04 08:47:51;;;;;;;;;;;;;;;13.83;95.15;98450.66;5011061;28;20422;-81
2023/04/04 08:50:18;;;;;;;;;;;;;;;14.12;94.32;98459.84;5011394;28;19953;-81
2023/04/04 08:52:44;;;;;;;;;;;;;;;13.95;91.12;98464.16;5011201;28;20506;-82
2023/04/04 08:55:10;;;;;;;;;;;;;;;13.78;90.34;98462.31;5011473;28;20446;-80
2023/04/04 08:57:35;;;;;;;;;;;;;;;13.72;94.88;98457.31;5011341;28;20013;-80
2023/04/04 09:00:04;;;;;;;;;;;;;;;13.86;93.15;98463.75;5011340;28;19941;-81
2023/04/04 09:02:36;;;;;;;;;;;;;;;13.88;90.84;98462.72;5010974;28;19967;-81
2023/04/04 09:05:01;;;;;;;;;;;;;;;13.97;93.49;98459.63;5011229;28;19917;-81
2023/04/04 09:07:27;;;;;;;;;;;;;;;13.88;91.76;98462.72;5015465;28;19917;-83
2023/04/04 09:09:52;;;;;;;;;;;;;;;13.86;92.84;98464.59;5018645;28;19932;-82
2023/04/04 09:12:19;;;;;;;;;;;;;;;13.64;92.97;98470.06;5030947;28;19917;-82
2023/04/04 09:14:45;;;;;;;;;;;;;;;13.89;91.85;98463.59;5024662;28;20052;-80
2023/04/04 09:17:10;;;;;;;;;;;;;;;13.78;89.31;98467.63;5010866;28;19914;-81
2023/04/04 09:19:36;;;;;;;;;;;;;;;13.93;91.38;98468.69;5025301;28;19920;-81
2023/04/04 09:22:01;;;;;;;;;;;;;;;13.72;91.97;98470.56;5010603;28;19953;-81
2023/04/04 09:24:39;;;;;;;;;;;;;;;13.87;91.24;98474.28;5009471;28;19916;-83
2023/04/04 09:27:06;;;;;;;;;;;;;;;13.70;89.47;98464.47;5007883;28;19913;-82
2023/04/04 09:29:32;;;;;;;;;;;;;;;13.79;90.01;98463.16;5012877;28;20004;-81
2023/04/04 09:31:57;;;;;;;;;;;;;;;13.73;90.87;98471.41;5009862;28;19992;-82
2023/04/04 09:34:23;;;;;;;;;;;;;;;13.86;91.05;98463.75;5008884;28;19917;-82
2023/04/04 09:36:48;;;;;;;;;;;;;;;14.20;90.64;98464.75;5008858;28;20303;-82
2023/04/04 09:39:19;;;;;;;;;;;;;;;14.47;87.30;98468.69;5009189;28;20442;-82
2023/04/04 09:41:44;;;;;;;;;;;;;;;14.44;84.70;98470.63;4997373;28;19925;-82
2023/04/04 09:44:11;;;;;;;;;;;;;;;14.54;87.75;98471.03;5009831;28;19921;-83
2023/04/04 09:46:37;;;;;;;;;;;;;;;14.66;85.22;98471.28;5008141;28;19921;-84
2023/04/04 09:49:03;;;;;;;;;;;;;;;14.55;85.64;98464.78;5009555;28;19917;-83
2023/04/04 09:51:35;;;;;;;;;;;;;;;14.58;85.98;98476.13;5008850;28;19917;-84
2023/04/04 09:54:01;;;;;;;;;;;;;;;14.77;85.38;98475.19;4998721;28;20520;-84
2023/04/04 09:56:26;;;;;;;;;;;;;;;14.78;86.07;98475.13;5005867;28;19914;-81
2023/04/04 09:58:52;;;;;;;;;;;;;;;14.99;81.67;98470.47;5009947;28;19914;-81
2023/04/04 10:01:17;;;;;;;;;;;;;;;15.27;82.72;98470.81;5015610;28;20264;-83
2023/04/04 10:03:49;;;;;;;;;;;;;;;15.07;82.29;98469.22;5030737;28;19917;-81
2023/04/04 10:06:15;;;;;;;;;;;;;;;15.33;82.85;98466.03;5033734;28;19913;-83
2023/04/04 10:08:42;;;;;;;;;;;;;;;15.53;77.85;98454.31;5033887;28;20409;-82
2023/04/04 10:11:08;;;;;;;;;;;;;;;15.61;78.24;98456.53;5033468;28;19966;-82
2023/04/04 10:13:39;;;;;;;;;;;;;;;15.62;78.33;98457.41;5033344;28;20387;-81
2023/04/04 10:16:05;;;;;;;;;;;;;;;15.73;77.00;98457.66;5033671;28;19913;-81
2023/04/04 10:18:31;;;;;;;;;;;;;;;15.80;75.27;98451.09;5033364;28;19924;-81
2023/04/04 10:20:57;;;;;;;;;;;;;;;15.61;73.96;98455.69;5033507;28;20000;-82
2023/04/04 10:23:25;;;;;;;;;;;;;;;15.98;72.70;98449.19;5014955;28;20322;-81
2023/04/04 10:25:51;;;;;;;;;;;;;;;16.26;70.40;98443.13;5033208;28;19952;-81
2023/04/04 10:28:17;;;;;;;;;;;;;;;16.06;72.50;98452.25;5032815;28;19920;-82
2023/04/04 10:30:47;;;;;;;;;;;;;;;15.69;72.71;98446.34;5033116;28;19913;-80
2023/04/04 10:33:21;;;;;;;;;;;;;;;15.70;73.97;98453.38;5033090;28;20406;-81
2023/04/04 10:35:50;;;;;;;;;;;;;;;15.58;74.04;98440.75;5033542;28;19913;-82
2023/04/04 10:38:17;;;;;;;;;;;;;;;15.54;73.68;98448.06;5032953;28;20042;-81
2023/04/04 10:40:45;;;;;;;;;;;;;;;15.84;72.86;98447.31;5033226;28;19913;-81
2023/04/04 10:43:11;;;;;;;;;;;;;;;15.68;74.27;98438.47;5032455;28;19917;-81
2023/04/04 10:45:41;;;;;;;;;;;;;;;15.70;75.97;98434.75;5032800;28;19924;-84
2023/04/04 10:48:07;;;;;;;;;;;;;;;15.51;75.63;98442.91;5032372;28;19913;-84
2023/04/04 10:50:34;;;;;;;;;;;;;;;15.48;75.29;98440.44;5032947;28;19997;-82
2023/04/04 10:53:02;;;;;;;;;;;;;;;15.86;75.12;98448.06;5032016;28;20387;-84
2023/04/04 10:55:28;;;;;;;;;;;;;;;15.62;76.34;98449.44;5032622;28;19916;-83
2023/04/04 10:57:54;;;;;;;;;;;;;;;15.52;78.19;98439.31;5032494;28;19917;-84
2023/04/04 11:00:22;;;;;;;;;;;;;;;15.36;78.20;98428.66;5032633;28;20386;-83
2023/04/04 11:02:51;;;;;;;;;;;;;;;15.27;77.48;98433.63;5032388;28;19924;-84
2023/04/04 11:05:22;;;;;;;;;;;;;;;15.59;77.02;98426.53;5032093;28;19917;-83
2023/04/04 11:07:52;;;;;;;;;;;;;;;15.66;74.89;98427.03;5032548;28;19956;-87
2023/04/04 11:10:22;;;;;;;;;;;;;;;15.48;72.93;98427.13;5031819;28;19989;-86
2023/04/04 11:12:53;;;;;;;;;;;;;;;15.95;73.52;98435.22;5032329;28;19917;-86
2023/04/04 11:15:20;;;;;;;;;;;;;;;16.33;71.58;98432.13;5031793;28;19920;-84
2023/04/04 11:17:48;;;;;;;;;;;;;;;16.44;70.11;98427.06;5032817;28;19920;-83
2023/04/04 11:20:15;;;;;;;;;;;;;;;16.32;68.33;98431.28;5032043;28;20007;-83
2023/04/04 11:22:44;;;;;;;;;;;;;;;16.85;67.67;98428.16;5032179;28;19986;-82
2023/04/04 11:25:24;;;;;;;;;;;;;;;16.75;69.15;98431.38;5031580;28;19917;-82
2023/04/04 11:27:53;;;;;;;;;;;;;;;16.60;68.53;98430.50;5032020;28;20007;-82
2023/04/04 11:30:19;;;;;;;;;;;;;;;16.50;70.07;98423.16;5031761;28;19913;-84
2023/04/04 11:32:47;;;;;;;;;;;;;;;16.45;67.96;98428.75;5032521;28;19920;-84
2023/04/04 11:35:13;;;;;;;;;;;;;;;16.63;68.75;98422.31;5031899;28;19932;-83
2023/04/04 11:37:51;;;;;;;;;;;;;;;16.73;65.70;98432.41;5032175;28;19917;-83
2023/04/04 11:40:16;;;;;;;;;;;;;;;16.95;64.76;98430.22;5013603;28;20391;-82
2023/04/04 11:42:42;;;;;;;;;;;;;;;17.21;65.14;98427.75;5031991;28;19952;-83
2023/04/04 11:45:09;;;;;;;;;;;;;;;17.08;67.34;98427.63;5029945;28;19909;-83
2023/04/04 11:47:34;;;;;;;;;;;;;;;16.74;66.79;98434.16;5013809;28;19997;-83
2023/04/04 11:50:01;;;;;;;;;;;;;;;16.25;70.02;98435.22;5031936;28;19916;-82
2023/04/04 11:52:32;;;;;;;;;;;;;;;15.69;73.73;98429.53;5031833;28;19941;-79
2023/04/04 11:54:58;;;;;;;;;;;;;;;15.70;77.19;98423.28;5031646;28;20447;-82
2023/04/04 11:57:23;;;;;;;;;;;;;;;15.52;76.19;98435.78;5031400;28;20074;-82
2023/04/04 11:59:50;;;;;;;;;;;;;;;15.57;75.52;98431.09;5031033;28;20398;-83
2023/04/04 12:02:18;;;;;;;;;;;;;;;15.03;77.93;98437.50;5031586;28;19924;-83
2023/04/04 12:04:44;;;;;;;;;;;;;;;15.24;81.63;98445.25;5031378;28;19966;-84
2023/04/04 12:07:11;;;;;;;;;;;;;;;14.85;87.99;98444.66;5031174;28;20379;-85
2023/04/04 12:09:37;;;;;;;;;;;;;;;14.80;87.53;98448.50;5032020;28;19913;-84
2023/04/04 12:12:03;;;;;;;;;;;;;;;15.21;85.63;98451.63;5031043;28;20007;-83
2023/04/04 12:14:31;;;;;;;;;;;;;;;15.24;85.74;98453.22;5030871;28;20446;-84
2023/04/04 12:16:58;;;;;;;;;;;;;;;15.28;85.81;98452.13;5030990;28;20055;-84
2023/04/04 12:19:24;;;;;;;;;;;;;;;14.75;87.13;98450.50;5030663;28;19917;-83
2023/04/04 12:21:49;;;;;;;;;;;;;;;14.50;89.13;98455.28;5031196;28;20288;-87
2023/04/04 12:24:15;;;;;;;;;;;;;;;14.46;88.19;98452.84;5030283;28;19913;-83
2023/04/04 12:26:41;;;;;;;;;;;;;;;14.37;86.93;98442.72;5030728;28;19913;-84
2023/04/04 12:29:08;;;;;;;;;;;;;;;14.02;89.46;98442.66;5031060;28;19923;-83
2023/04/04 12:31:34;;;;;;;;;;;;;;;14.05;89.27;98439.84;5030688;28;19913;-84
2023/04/04 12:34:00;;;;;;;;;;;;;;;13.83;91.17;98429.44;5030325;28;19919;-83